Time;durP1;ratioP1;P1;durP2;ratioP2;P2;SDS_P1;SDS_P2;PMS_P1;PMS_P2;Temp;Humidity;BMP_temperature;BMP_pressure;BME280_temperature;BME280_humidity;BME280_pressure;Samples;Min_cycle;Max_cycle;Signal;HPM_P1;HPM_P2
2022/07/17 00:01:57;;;;;;;2.22;1.63;;;18.20;75.70;;;;;;5053385;28;20025;-48
2022/07/17 00:04:22;;;;;;;4.03;2.25;;;18.10;75.40;;;;;;5051999;28;20061;-47
2022/07/17 00:06:48;;;;;;;3.38;1.70;;;18.10;75.70;;;;;;5052912;28;20405;-50
2022/07/17 00:09:14;;;;;;;2.55;1.50;;;18.10;75.80;;;;;;5053154;28;20032;-49
2022/07/17 00:11:39;;;;;;;8.90;1.88;;;18.10;75.70;;;;;;5053177;28;20104;-49
2022/07/17 00:14:05;;;;;;;7.57;1.70;;;18.00;76.00;;;;;;5053590;28;20027;-49
2022/07/17 00:16:31;;;;;;;1.63;1.33;;;18.00;76.10;;;;;;5053274;28;20483;-49
2022/07/17 00:18:56;;;;;;;5.93;2.15;;;18.00;76.40;;;;;;5052791;28;20441;-52
2022/07/17 00:21:22;;;;;;;6.05;1.83;;;17.90;76.40;;;;;;5052733;28;20024;-50
2022/07/17 00:23:47;;;;;;;4.63;1.58;;;17.90;76.40;;;;;;5054758;28;20044;-49
2022/07/17 00:26:13;;;;;;;2.45;1.63;;;17.80;76.40;;;;;;5053381;28;20096;-50
2022/07/17 00:28:38;;;;;;;2.13;1.55;;;17.80;76.70;;;;;;5052341;28;20056;-48
2022/07/17 00:31:04;;;;;;;7.22;1.90;;;17.80;77.00;;;;;;5052942;28;20097;-50
2022/07/17 00:33:30;;;;;;;5.35;1.38;;;17.80;76.90;;;;;;5053286;28;20404;-50
2022/07/17 00:35:55;;;;;;;2.75;1.60;;;17.70;77.20;;;;;;5053228;28;20033;-52
2022/07/17 00:38:21;;;;;;;2.60;1.55;;;17.70;77.30;;;;;;5052190;28;20028;-48
2022/07/17 00:40:46;;;;;;;8.40;2.13;;;17.60;77.50;;;;;;5051074;22;20042;-47
2022/07/17 00:43:12;;;;;;;3.72;1.50;;;17.50;77.50;;;;;;4989389;28;20034;-52
2022/07/17 00:45:37;;;;;;;4.97;1.52;;;17.50;77.60;;;;;;4990289;28;20042;-50
2022/07/17 00:48:05;;;;;;;9.45;1.58;;;17.20;78.00;;;;;;4989565;28;20030;-48
2022/07/17 00:50:40;;;;;;;5.10;2.28;;;17.30;78.30;;;;;;4990271;28;20393;-50
2022/07/17 00:53:07;;;;;;;1.77;1.50;;;17.20;78.10;;;;;;4990085;28;20030;-48
2022/07/17 00:55:32;;;;;;;7.25;1.73;;;17.20;78.70;;;;;;4989245;28;20110;-52
2022/07/17 00:58:02;;;;;;;3.25;1.60;;;17.10;78.40;;;;;;4989475;28;20128;-50
2022/07/17 01:00:28;;;;;;;3.45;1.83;;;17.10;78.70;;;;;;4988600;28;20072;-47
2022/07/17 01:02:54;;;;;;;3.95;1.88;;;17.10;78.90;;;;;;4990057;28;20443;-48
2022/07/17 01:05:22;;;;;;;2.95;1.48;;;17.00;79.20;;;;;;4989986;28;20499;-52
2022/07/17 01:07:48;;;;;;;2.75;1.77;;;17.00;79.20;;;;;;4989350;28;20033;-49
2022/07/17 01:10:16;;;;;;;4.93;1.50;;;16.90;79.10;;;;;;4989740;28;20077;-50
2022/07/17 01:12:42;;;;;;;3.58;1.70;;;16.90;79.50;;;;;;4988523;28;20022;-51
2022/07/17 01:15:09;;;;;;;8.52;1.67;;;16.90;79.70;;;;;;4988672;28;20028;-52
2022/07/17 01:17:35;;;;;;;7.80;1.80;;;16.90;79.90;;;;;;4989120;28;20080;-50
2022/07/17 01:20:02;;;;;;;8.48;1.98;;;17.00;79.90;;;;;;4989621;28;20486;-49
2022/07/17 01:22:28;;;;;;;3.08;1.35;;;17.00;79.90;;;;;;4989750;28;20025;-51
2022/07/17 01:24:53;;;;;;;5.75;1.55;;;17.00;79.90;;;;;;4988334;28;20026;-51
2022/07/17 01:27:19;;;;;;;3.92;1.45;;;16.90;79.90;;;;;;4988900;28;20026;-49
2022/07/17 01:29:44;;;;;;;7.95;1.80;;;16.90;80.10;;;;;;4988786;28;20055;-48
2022/07/17 01:32:10;;;;;;;1.77;1.30;;;16.80;80.30;;;;;;4989591;28;20057;-53
2022/07/17 01:34:36;;;;;;;6.07;1.70;;;16.80;80.50;;;;;;4989631;28;20045;-54
2022/07/17 01:37:02;;;;;;;3.13;1.52;;;16.80;80.60;;;;;;4988673;28;20030;-47
2022/07/17 01:42:11;;;;;;;3.25;1.80;;;16.70;81.00;;;;;;4988369;28;20075;-49
2022/07/17 01:44:37;;;;;;;7.50;1.95;;;16.70;81.00;;;;;;4989489;28;20101;-51
2022/07/17 01:47:04;;;;;;;2.38;1.50;;;16.70;81.10;;;;;;4988629;28;20043;-54
2022/07/17 01:49:29;;;;;;;2.65;1.67;;;16.70;81.50;;;;;;4989459;28;20026;-54
2022/07/17 01:51:59;;;;;;;7.78;2.55;;;16.60;81.70;;;;;;4989075;28;20025;-53
2022/07/17 01:54:27;;;;;;;4.80;1.90;;;16.60;81.60;;;;;;4989268;28;20026;-52
2022/07/17 01:56:53;;;;;;;6.85;2.58;;;16.50;81.80;;;;;;4988493;28;20054;-54
2022/07/17 01:59:19;;;;;;;5.47;1.85;;;16.50;82.20;;;;;;4989228;28;20097;-52
2022/07/17 02:01:44;;;;;;;4.07;1.65;;;16.40;82.40;;;;;;4989184;28;20033;-47
2022/07/17 02:04:09;;;;;;;3.95;1.75;;;16.40;82.70;;;;;;4989229;28;20110;-49
2022/07/17 02:06:35;;;;;;;6.40;1.83;;;16.30;83.00;;;;;;4988879;28;20018;-51
2022/07/17 02:09:00;;;;;;;2.70;1.40;;;16.30;83.00;;;;;;4992157;28;20075;-52
2022/07/17 02:11:26;;;;;;;8.77;3.05;;;16.30;83.30;;;;;;4992645;28;20027;-50
2022/07/17 02:13:51;;;;;;;3.00;2.30;;;16.60;83.80;;;;;;4992557;28;20034;-50
2022/07/17 02:16:17;;;;;;;7.43;2.10;;;16.20;83.60;;;;;;4991341;28;20037;-49
2022/07/17 02:18:42;;;;;;;7.13;2.00;;;16.20;83.80;;;;;;4991802;28;20068;-52
2022/07/17 02:21:08;;;;;;;5.82;1.70;;;16.20;84.00;;;;;;4992383;28;20066;-51
2022/07/17 02:23:33;;;;;;;3.45;1.63;;;16.10;84.20;;;;;;4992351;28;20033;-50
2022/07/17 02:25:59;;;;;;;2.33;1.98;;;16.10;84.50;;;;;;4992416;28;20226;-54
2022/07/17 02:28:24;;;;;;;3.70;1.90;;;16.10;84.60;;;;;;4991722;28;20101;-53
2022/07/17 02:30:50;;;;;;;3.42;1.55;;;16.00;84.90;;;;;;4992353;28;20520;-47
2022/07/17 02:33:15;;;;;;;3.88;1.77;;;16.00;85.30;;;;;;4992392;28;20541;-51
2022/07/17 02:35:41;;;;;;;7.85;1.95;;;16.10;84.90;;;;;;4992289;28;20030;-53
2022/07/17 02:38:07;;;;;;;5.88;1.60;;;16.10;84.80;;;;;;4990067;28;20026;-52
2022/07/17 02:40:32;;;;;;;7.55;2.03;;;16.20;84.40;;;;;;4992033;28;20049;-49
2022/07/17 02:42:57;;;;;;;4.53;1.73;;;16.20;84.50;;;;;;4990512;28;20022;-51
2022/07/17 02:45:26;;;;;;;1.48;1.30;;;16.10;84.80;;;;;;4992286;28;20018;-50
2022/07/17 02:47:52;;;;;;;4.05;1.92;;;16.10;84.90;;;;;;4990014;28;20030;-51
2022/07/17 02:50:18;;;;;;;5.15;1.55;;;16.00;85.10;;;;;;4990745;28;20141;-50
2022/07/17 02:52:43;;;;;;;7.32;1.83;;;16.00;85.40;;;;;;4991959;28;20109;-47
2022/07/17 02:55:10;;;;;;;3.22;1.80;;;16.00;85.60;;;;;;4992261;28;20479;-49
2022/07/17 02:57:37;;;;;;;4.35;1.52;;;15.90;85.50;;;;;;4991142;28;20026;-50
2022/07/17 03:00:06;;;;;;;5.55;1.38;;;15.90;85.80;;;;;;4991828;28;20049;-50
2022/07/17 03:02:32;;;;;;;2.67;1.23;;;15.80;86.00;;;;;;4991706;28;20436;-51
2022/07/17 03:04:57;;;;;;;7.40;1.95;;;15.70;86.50;;;;;;4991921;28;20035;-51
2022/07/17 03:07:23;;;;;;;2.53;1.60;;;15.60;86.70;;;;;;4991004;28;20015;-51
2022/07/17 03:09:48;;;;;;;4.38;2.13;;;15.60;87.00;;;;;;4991479;28;20508;-51
2022/07/17 03:12:14;;;;;;;4.78;1.90;;;15.60;87.20;;;;;;4991603;28;20050;-48
2022/07/17 03:14:39;;;;;;;2.25;1.48;;;15.60;87.40;;;;;;4991690;28;20042;-50
2022/07/17 03:17:05;;;;;;;4.18;1.88;;;15.50;87.60;;;;;;4990198;28;20379;-51
2022/07/17 03:19:30;;;;;;;2.67;1.50;;;15.50;87.80;;;;;;4991786;28;20035;-52
2022/07/17 03:21:56;;;;;;;6.55;1.67;;;15.40;88.20;;;;;;4991360;28;20509;-49
2022/07/17 03:24:21;;;;;;;3.42;2.00;;;15.40;88.70;;;;;;4991673;28;20030;-50
2022/07/17 03:26:47;;;;;;;1.67;1.33;;;15.40;88.90;;;;;;4991284;28;20029;-49
2022/07/17 03:29:12;;;;;;;7.22;2.03;;;15.40;89.10;;;;;;4991257;28;20103;-46
2022/07/17 03:31:38;;;;;;;5.50;1.92;;;15.40;89.20;;;;;;4991588;28;20022;-48
2022/07/17 03:34:03;;;;;;;4.63;1.52;;;15.40;89.50;;;;;;4991246;28;20034;-46
2022/07/17 03:36:29;;;;;;;4.30;1.60;;;15.30;89.80;;;;;;4991350;28;20338;-47
2022/07/17 03:38:54;;;;;;;7.22;1.73;;;15.30;90.10;;;;;;4990589;28;20058;-48
2022/07/17 03:41:20;;;;;;;8.60;2.08;;;15.20;90.20;;;;;;4991041;28;20034;-50
2022/07/17 03:43:45;;;;;;;3.47;1.70;;;15.20;90.30;;;;;;4990236;28;20026;-49
2022/07/17 03:46:11;;;;;;;5.38;1.73;;;15.10;90.60;;;;;;4991676;28;20023;-52
2022/07/17 03:48:37;;;;;;;5.25;1.80;;;15.10;90.80;;;;;;4990478;28;20562;-53
2022/07/17 03:51:02;;;;;;;5.90;1.70;;;15.10;90.90;;;;;;4991107;28;20022;-50
2022/07/17 03:53:28;;;;;;;6.85;1.63;;;15.10;91.10;;;;;;4991103;28;20039;-50
2022/07/17 03:55:53;;;;;;;4.97;1.50;;;15.00;91.20;;;;;;4991211;28;20030;-51
2022/07/17 03:58:19;;;;;;;4.55;1.80;;;15.10;91.30;;;;;;4990404;28;20674;-49
2022/07/17 04:00:44;;;;;;;4.55;1.65;;;15.00;91.50;;;;;;4991045;28;20027;-50
2022/07/17 04:03:10;;;;;;;2.33;1.55;;;15.00;91.50;;;;;;4989806;28;20036;-48
2022/07/17 04:05:35;;;;;;;4.35;1.55;;;15.00;91.80;;;;;;4990942;28;20033;-51
2022/07/17 04:08:01;;;;;;;3.80;1.23;;;14.90;92.00;;;;;;4990122;28;20122;-52
2022/07/17 04:10:26;;;;;;;4.93;1.88;;;14.90;92.10;;;;;;4990886;28;20553;-49
2022/07/17 04:12:52;;;;;;;5.25;1.80;;;14.90;92.20;;;;;;4990692;28;20030;-50
2022/07/17 04:15:49;;;;;;;3.58;1.95;;;14.90;92.30;;;;;;4990849;28;20375;-49
2022/07/17 04:18:03;;;;;;;3.60;1.80;;;14.80;92.40;;;;;;4990016;28;20448;-49
2022/07/17 04:20:28;;;;;;;4.60;1.80;;;14.80;92.70;;;;;;4990572;28;20034;-50
2022/07/17 04:22:54;;;;;;;6.13;1.95;;;14.70;92.70;;;;;;4990645;28;20027;-52
2022/07/17 04:25:19;;;;;;;2.25;1.40;;;14.80;92.80;;;;;;4989332;28;20022;-52
2022/07/17 04:27:45;;;;;;;4.07;1.63;;;14.90;92.70;;;;;;4989954;28;20401;-46
2022/07/17 04:30:11;;;;;;;7.38;2.03;;;14.90;92.60;;;;;;4989458;28;20041;-49
2022/07/17 04:32:36;;;;;;;3.13;1.98;;;14.90;92.70;;;;;;4989166;28;20061;-49
2022/07/17 04:35:02;;;;;;;1.90;1.58;;;14.90;92.80;;;;;;4990601;28;20296;-50
2022/07/17 04:37:28;;;;;;;4.60;1.77;;;14.90;92.80;;;;;;4989861;28;20027;-51
2022/07/17 04:39:53;;;;;;;9.63;2.17;;;15.00;92.70;;;;;;4989917;28;20077;-51
2022/07/17 04:42:19;;;;;;;6.55;2.25;;;15.00;92.60;;;;;;4988722;28;20039;-52
2022/07/17 04:44:44;;;;;;;4.25;1.58;;;15.10;92.70;;;;;;4990242;28;20027;-52
2022/07/17 04:47:10;;;;;;;4.22;1.70;;;15.20;92.60;;;;;;4989524;28;20057;-51
2022/07/17 04:49:35;;;;;;;5.35;1.75;;;15.30;92.40;;;;;;4990170;28;20030;-51
2022/07/17 04:52:01;;;;;;;2.58;1.58;;;15.40;92.20;;;;;;4990061;28;20037;-48
2022/07/17 04:54:26;;;;;;;3.92;1.85;;;15.50;92.00;;;;;;4990171;28;20097;-48
2022/07/17 04:56:52;;;;;;;4.97;1.70;;;15.60;91.80;;;;;;4989505;28;20400;-51
2022/07/17 04:59:17;;;;;;;5.45;1.77;;;15.60;91.80;;;;;;4989991;28;20112;-50
2022/07/17 05:01:43;;;;;;;5.22;1.90;;;15.70;91.80;;;;;;4989947;28;20022;-51
2022/07/17 05:04:08;;;;;;;4.47;1.77;;;15.80;91.40;;;;;;4989853;28;20026;-49
2022/07/17 05:06:34;;;;;;;2.63;1.73;;;16.10;90.80;;;;;;4989963;28;20022;-49
2022/07/17 05:08:59;;;;;;;3.95;2.00;;;16.30;90.40;;;;;;4989385;28;20054;-47
2022/07/17 05:11:25;;;;;;;3.42;1.35;;;16.50;90.00;;;;;;4990019;28;20117;-49
2022/07/17 05:13:50;;;;;;;4.25;1.77;;;16.60;89.70;;;;;;4989744;28;20033;-54
2022/07/17 05:16:16;;;;;;;4.05;1.65;;;16.80;89.40;;;;;;4989841;28;20147;-51
2022/07/17 05:18:41;;;;;;;16.90;1.73;;;16.90;89.30;;;;;;4988924;28;20030;-52
2022/07/17 05:21:07;;;;;;;4.20;1.67;;;17.30;87.60;;;;;;4989658;28;20045;-52
2022/07/17 05:23:33;;;;;;;4.28;1.30;;;17.60;86.80;;;;;;4989617;28;20058;-54
2022/07/17 05:25:58;;;;;;;2.30;1.65;;;17.90;85.10;;;;;;4989742;28;20030;-47
2022/07/17 05:28:24;;;;;;;5.00;1.33;;;18.10;84.40;;;;;;4988716;28;20022;-48
2022/07/17 05:30:49;;;;;;;3.80;1.42;;;18.30;83.70;;;;;;4988390;28;20083;-54
2022/07/17 05:33:15;;;;;;;3.17;1.40;;;18.50;83.10;;;;;;4989353;28;20043;-48
2022/07/17 05:35:40;;;;;;;1.58;1.25;;;18.60;83.20;;;;;;4989542;28;20053;-50
2022/07/17 05:38:06;;;;;;;4.88;1.25;;;19.00;81.50;;;;;;4988811;28;20034;-51
2022/07/17 05:40:31;;;;;;;5.50;1.30;;;19.10;81.00;;;;;;4988848;28;20050;-51
2022/07/17 05:42:58;;;;;;;7.22;1.42;;;19.40;80.10;;;;;;4988357;28;20025;-49
2022/07/17 05:45:23;;;;;;;7.38;1.88;;;19.60;79.60;;;;;;4989783;28;20386;-48
2022/07/17 05:47:49;;;;;;;4.15;1.60;;;19.90;79.20;;;;;;4988589;28;20027;-50
2022/07/17 05:50:14;;;;;;;3.53;1.10;;;20.40;76.70;;;;;;4989277;28;20084;-49
2022/07/17 05:52:40;;;;;;;1.92;1.00;;;20.60;76.40;;;;;;4989322;28;20026;-53
2022/07/17 05:55:06;;;;;;;2.90;1.00;;;20.90;75.00;;;;;;4989249;28;20031;-52
2022/07/17 05:57:32;;;;;;;2.08;1.27;;;21.00;74.80;;;;;;4988598;28;20049;-47
2022/07/17 05:59:57;;;;;;;3.05;1.27;;;21.40;73.50;;;;;;4989014;28;20449;-46
2022/07/17 06:02:23;;;;;;;2.13;1.10;;;21.70;72.80;;;;;;4989057;28;20097;-51
2022/07/17 06:04:48;;;;;;;2.63;1.08;;;21.90;71.60;;;;;;4985606;28;20030;-54
2022/07/17 06:07:14;;;;;;;3.88;1.52;;;22.00;71.70;;;;;;5023449;28;20513;-48
2022/07/17 06:09:39;;;;;;;3.30;1.50;;;22.40;71.30;;;;;;4989183;28;20037;-49
2022/07/17 06:12:05;;;;;;;2.70;1.38;;;23.10;69.80;;;;;;5060345;28;20543;-54
2022/07/17 06:14:31;;;;;;;4.55;1.20;;;23.80;68.60;;;;;;5071276;28;20071;-50
2022/07/17 06:16:56;;;;;;;4.95;1.20;;;24.40;68.00;;;;;;5004352;28;20034;-46
2022/07/17 06:19:22;;;;;;;2.72;1.27;;;25.00;66.50;;;;;;4988823;28;20109;-52
2022/07/17 06:21:47;;;;;;;2.88;1.00;;;25.30;65.10;;;;;;4982196;28;20478;-49
2022/07/17 06:24:12;;;;;;;2.45;0.98;;;25.60;63.70;;;;;;4979200;28;20450;-49
2022/07/17 06:26:38;;;;;;;3.15;1.10;;;25.30;63.10;;;;;;4988049;28;20086;-51
2022/07/17 06:29:04;;;;;;;2.17;1.13;;;25.70;63.40;;;;;;4987659;28;20053;-49
2022/07/17 06:31:29;;;;;;;2.63;1.25;;;26.60;61.50;;;;;;4986774;28;20034;-50
2022/07/17 06:33:55;;;;;;;4.82;1.40;;;26.50;61.70;;;;;;5003704;28;20439;-49
2022/07/17 06:36:20;;;;;;;4.25;1.00;;;27.00;60.70;;;;;;4988812;28;20046;-46
2022/07/17 06:38:46;;;;;;;2.58;1.10;;;26.70;60.40;;;;;;4987631;28;20035;-45
2022/07/17 06:43:45;;;;;;;1.98;1.40;;;26.60;61.10;;;;;;5070560;23;20115;-47
2022/07/17 06:46:10;;;;;;;2.67;1.20;;;27.00;60.50;;;;;;5033236;28;20056;-47
2022/07/17 06:48:36;;;;;;;3.60;1.02;;;27.10;60.10;;;;;;5050159;28;20029;-46
2022/07/17 06:51:01;;;;;;;9.02;1.95;;;27.20;60.40;;;;;;5051038;28;20489;-47
2022/07/17 06:53:27;;;;;;;3.88;1.33;;;27.50;59.10;;;;;;5053351;28;20028;-45
2022/07/17 06:55:52;;;;;;;3.70;1.70;;;27.60;59.30;;;;;;5054671;28;20025;-45
2022/07/17 06:58:18;;;;;;;3.65;1.20;;;27.60;58.90;;;;;;5053357;28;20056;-45
2022/07/17 07:00:43;;;;;;;4.55;1.30;;;28.00;57.60;;;;;;5054220;28;20030;-46
2022/07/17 07:03:09;;;;;;;7.22;1.50;;;27.80;58.80;;;;;;5054162;28;20017;-49
2022/07/17 07:05:34;;;;;;;5.32;1.20;;;28.00;58.20;;;;;;5054141;28;20025;-44
2022/07/17 07:08:00;;;;;;;6.05;1.75;;;28.30;57.10;;;;;;5053686;28;20031;-47
2022/07/17 07:10:27;;;;;;;4.93;1.20;;;28.80;56.60;;;;;;5054092;28;20025;-47
2022/07/17 07:12:53;;;;;;;1.73;1.08;;;29.20;55.90;;;;;;5054225;28;20528;-47
2022/07/17 07:15:18;;;;;;;2.03;0.93;;;29.20;55.80;;;;;;5054146;28;20025;-52
2022/07/17 07:17:44;;;;;;;5.85;1.00;;;28.70;56.40;;;;;;5053354;28;20071;-44
2022/07/17 07:20:10;;;;;;;5.53;1.50;;;29.00;56.10;;;;;;5054115;28;20025;-46
2022/07/17 07:22:36;;;;;;;1.67;1.00;;;28.80;55.30;;;;;;5053815;28;20025;-50
2022/07/17 07:25:02;;;;;;;4.00;1.20;;;29.10;55.50;;;;;;5054265;28;20025;-47
2022/07/17 07:27:28;;;;;;;2.95;1.25;;;29.10;55.40;;;;;;5053112;28;20029;-48
2022/07/17 07:29:53;;;;;;;4.30;1.48;;;29.10;55.90;;;;;;5054407;28;20052;-47
2022/07/17 07:32:19;;;;;;;4.45;1.05;;;29.50;55.30;;;;;;5053536;28;20389;-47
2022/07/17 07:34:45;;;;;;;18.92;1.73;;;30.00;55.00;;;;;;5053803;28;20047;-49
2022/07/17 07:37:10;;;;;;;3.20;1.17;;;29.80;55.00;;;;;;5053067;28;20078;-46
2022/07/17 07:39:35;;;;;;;3.53;0.98;;;29.90;53.80;;;;;;5053779;28;20463;-51
2022/07/17 07:42:01;;;;;;;6.55;1.33;;;29.90;54.30;;;;;;5053357;28;20068;-44
2022/07/17 07:44:26;;;;;;;3.50;1.35;;;29.80;54.50;;;;;;5052931;28;20374;-48
2022/07/17 07:46:52;;;;;;;3.33;0.98;;;30.10;54.60;;;;;;5052353;28;20052;-44
2022/07/17 07:49:18;;;;;;;4.97;1.27;;;30.50;53.80;;;;;;5053448;28;20447;-55
2022/07/17 07:51:44;;;;;;;4.00;0.93;;;30.60;53.90;;;;;;5048703;28;20036;-46
2022/07/17 07:54:09;;;;;;;2.15;0.80;;;30.90;53.50;;;;;;5027954;28;20029;-46
2022/07/17 07:56:36;;;;;;;3.95;1.13;;;30.70;52.30;;;;;;5053079;28;20055;-53
2022/07/17 07:59:02;;;;;;;3.50;1.02;;;30.80;53.00;;;;;;5048158;28;20116;-45
2022/07/17 08:01:27;;;;;;;6.57;1.30;;;31.10;52.80;;;;;;5049209;28;20493;-47
2022/07/17 08:03:53;;;;;;;1.50;0.80;;;31.10;52.70;;;;;;5033454;28;20037;-47
2022/07/17 08:06:18;;;;;;;2.33;0.90;;;31.00;53.00;;;;;;5043153;28;20457;-49
2022/07/17 08:08:44;;;;;;;3.45;1.25;;;31.40;52.20;;;;;;5052190;28;20029;-43
2022/07/17 08:11:10;;;;;;;7.18;1.15;;;30.70;52.40;;;;;;5052686;28;20021;-44
2022/07/17 08:13:35;;;;;;;20.95;12.38;;;30.90;52.30;;;;;;5047820;28;20036;-49
2022/07/17 08:16:01;;;;;;;7.85;6.88;;;31.00;51.90;;;;;;5032882;28;20489;-47
2022/07/17 08:18:27;;;;;;;8.80;2.38;;;30.70;52.70;;;;;;5044361;28;20096;-46
2022/07/17 08:20:55;;;;;;;3.50;1.00;;;30.80;52.70;;;;;;5044421;28;20033;-45
2022/07/17 08:23:21;;;;;;;2.72;0.95;;;30.90;51.80;;;;;;5032810;28;20034;-44
2022/07/17 08:25:47;;;;;;;3.70;1.15;;;30.90;52.00;;;;;;5033336;28;20025;-42
2022/07/17 08:28:13;;;;;;;2.67;1.50;;;30.80;52.20;;;;;;5046143;28;20021;-47
2022/07/17 08:30:38;;;;;;;3.03;0.60;;;30.40;52.40;;;;;;5033058;28;20086;-45
2022/07/17 08:33:06;;;;;;;4.88;1.30;;;30.00;53.00;;;;;;5047482;28;20028;-49
2022/07/17 08:35:31;;;;;;;2.05;1.08;;;30.00;53.00;;;;;;5052171;28;20068;-46
2022/07/17 08:38:00;;;;;;;2.25;1.02;;;29.70;53.10;;;;;;5043620;28;20485;-45
2022/07/17 08:40:27;;;;;;;4.13;1.25;;;29.50;53.30;;;;;;5033664;28;20033;-45
2022/07/17 08:42:53;;;;;;;1.33;0.80;;;29.00;54.00;;;;;;5048027;28;20439;-48
2022/07/17 08:45:19;;;;;;;3.15;1.15;;;28.60;53.80;;;;;;5051382;28;20025;-46
2022/07/17 08:47:45;;;;;;;3.97;1.10;;;28.00;54.60;;;;;;5052059;28;20143;-49
2022/07/17 08:50:12;;;;;;;2.50;0.98;;;27.60;55.50;;;;;;5052430;28;20032;-48
2022/07/17 08:52:39;;;;;;;2.03;0.82;;;27.50;55.40;;;;;;5038554;28;20060;-55
2022/07/17 08:55:09;;;;;;;7.00;0.90;;;27.30;54.80;;;;;;5046712;28;20493;-47
2022/07/17 08:57:37;;;;;;;5.05;1.33;;;27.00;55.30;;;;;;5049784;28;20034;-52
2022/07/17 09:00:04;;;;;;;4.65;0.90;;;26.70;55.90;;;;;;5052031;28;20029;-51
2022/07/17 09:02:30;;;;;;;5.45;1.15;;;26.40;55.50;;;;;;5050409;28;20036;-50
2022/07/17 09:04:56;;;;;;;3.13;1.27;;;26.50;56.50;;;;;;5037263;28;20045;-50
2022/07/17 09:07:22;;;;;;;5.55;1.10;;;26.50;55.50;;;;;;5032116;28;20028;-48
2022/07/17 09:09:51;;;;;;;3.60;1.05;;;26.30;56.10;;;;;;5048563;28;20051;-48
2022/07/17 09:12:17;;;;;;;1.98;1.00;;;26.30;56.40;;;;;;5051151;28;20037;-52
2022/07/17 09:14:43;;;;;;;4.85;1.27;;;26.20;56.20;;;;;;5042752;28;20084;-44
2022/07/17 09:17:10;;;;;;;2.78;1.17;;;26.30;56.20;;;;;;5047141;28;20021;-48
2022/07/17 09:19:40;;;;;;;4.03;1.20;;;26.40;56.80;;;;;;5052213;28;20439;-48
2022/07/17 09:22:06;;;;;;;3.22;1.10;;;26.50;56.30;;;;;;5039175;28;20490;-46
2022/07/17 09:24:44;;;;;;;6.95;5.22;;;26.80;56.60;;;;;;5049406;28;20025;-47
2022/07/17 09:27:11;;;;;;;23.73;18.08;;;26.90;56.00;;;;;;5051611;28;20025;-45
2022/07/17 09:30:05;;;;;;;44.90;31.17;;;27.10;56.90;;;;;;5052140;28;20025;-52
2022/07/17 09:32:34;;;;;;;2.95;1.80;;;27.30;56.10;;;;;;5051666;28;20032;-50
2022/07/17 09:35:00;;;;;;;3.97;1.20;;;27.50;55.90;;;;;;5033798;28;20033;-45
2022/07/17 09:37:28;;;;;;;3.88;1.08;;;27.70;54.80;;;;;;5031081;28;20033;-45
2022/07/17 09:39:54;;;;;;;2.38;0.80;;;27.60;54.40;;;;;;5031722;28;20512;-45
2022/07/17 09:42:33;;;;;;;2.42;1.10;;;27.30;55.40;;;;;;5031479;28;20037;-45
2022/07/17 09:45:02;;;;;;;2.95;1.35;;;27.10;55.80;;;;;;5031732;28;20025;-45
2022/07/17 09:47:29;;;;;;;4.05;1.10;;;27.20;55.70;;;;;;5031018;28;20393;-51
2022/07/17 09:49:57;;;;;;;6.93;1.13;;;26.90;55.30;;;;;;5031422;28;20052;-49
2022/07/17 09:52:25;;;;;;;1.30;0.80;;;26.80;56.50;;;;;;5032862;28;20366;-46
2022/07/17 09:54:53;;;;;;;4.82;2.00;;;26.70;56.10;;;;;;5051456;28;20081;-46
2022/07/17 09:57:24;;;;;;;2.35;1.17;;;26.80;55.70;;;;;;5035194;28;20017;-46
2022/07/17 09:59:50;;;;;;;4.05;1.25;;;26.70;56.80;;;;;;5031219;28;20485;-45
2022/07/17 10:02:16;;;;;;;1.88;0.88;;;26.70;56.00;;;;;;5050566;28;20031;-47
2022/07/17 10:04:42;;;;;;;3.58;1.30;;;26.70;56.30;;;;;;5051091;28;20044;-48
2022/07/17 10:07:08;;;;;;;3.28;1.20;;;26.70;56.00;;;;;;5050666;28;20053;-45
2022/07/17 10:09:34;;;;;;;1.63;1.00;;;26.60;56.10;;;;;;5033344;28;20068;-47
2022/07/17 10:12:01;;;;;;;2.38;0.80;;;26.40;54.70;;;;;;5038279;28;20079;-49
2022/07/17 10:14:27;;;;;;;4.20;0.82;;;26.20;54.70;;;;;;5042428;28;20037;-45
2022/07/17 10:16:53;;;;;;;2.45;1.00;;;26.10;55.70;;;;;;5030126;28;20091;-48
2022/07/17 10:19:21;;;;;;;5.28;0.90;;;26.00;56.00;;;;;;5046116;28;20373;-44
2022/07/17 10:22:05;;;;;;;6.60;5.47;;;26.10;55.40;;;;;;5051095;28;20060;-45
2022/07/17 10:24:31;;;;;;;26.42;19.45;;;26.00;56.00;;;;;;5048822;28;20021;-48
2022/07/17 10:26:58;;;;;;;45.70;33.30;;;26.10;55.70;;;;;;5041078;28;20029;-47
2022/07/17 10:29:35;;;;;;;2.38;1.15;;;26.30;55.60;;;;;;5046125;28;20516;-47
2022/07/17 10:32:07;;;;;;;1.88;1.10;;;26.30;54.60;;;;;;5044111;28;20112;-46
2022/07/17 10:34:57;;;;;;;1.63;1.08;;;26.30;53.30;;;;;;5054756;28;20044;-45
2022/07/17 10:37:35;;;;;;;4.57;1.10;;;26.40;54.10;;;;;;5052906;28;20079;-47
2022/07/17 10:40:16;;;;;;;10.73;1.58;;;26.50;53.60;;;;;;5042491;28;20572;-46
2022/07/17 10:42:52;;;;;;;2.78;0.88;;;26.50;54.10;;;;;;5054539;28;20033;-49
2022/07/17 10:45:20;;;;;;;3.03;0.90;;;26.30;54.40;;;;;;5054448;28;20021;-47
2022/07/17 10:47:53;;;;;;;1.50;0.88;;;26.20;54.90;;;;;;5054387;28;20017;-45
2022/07/17 10:50:22;;;;;;;1.73;1.02;;;26.30;55.40;;;;;;5055326;28;20033;-44
2022/07/17 10:52:58;;;;;;;4.18;1.15;;;26.30;54.30;;;;;;5049325;28;20026;-48
2022/07/17 10:55:23;;;;;;;6.25;1.73;;;26.20;55.10;;;;;;5054357;28;20025;-44
2022/07/17 10:57:49;;;;;;;4.88;0.93;;;26.20;54.90;;;;;;5053432;28;20453;-48
2022/07/17 11:00:16;;;;;;;1.50;0.88;;;26.30;54.50;;;;;;5048242;28;20029;-50
2022/07/17 11:02:42;;;;;;;4.57;1.40;;;26.30;54.20;;;;;;5052702;28;20104;-48
2022/07/17 11:05:12;;;;;;;2.00;0.90;;;26.30;54.50;;;;;;5046809;28;20028;-46
2022/07/17 11:07:59;;;;;;;1.45;0.80;;;26.40;54.90;;;;;;5053222;28;20444;-43
2022/07/17 11:10:26;;;;;;;3.30;0.75;;;26.30;54.40;;;;;;5053297;28;20037;-44
2022/07/17 11:13:07;;;;;;;1.42;1.08;;;26.40;54.80;;;;;;5053480;28;20025;-44
2022/07/17 11:15:42;;;;;;;0.98;0.82;;;26.50;56.00;;;;;;5045289;28;20044;-45
2022/07/17 11:18:13;;;;;;;3.22;1.45;;;26.60;55.40;;;;;;5044083;28;20021;-46
2022/07/17 11:20:56;;;;;;;1.08;0.85;;;26.60;55.10;;;;;;5052478;28;20075;-41
2022/07/17 11:23:28;;;;;;;4.57;1.20;;;26.70;53.80;;;;;;5035054;28;20026;-42
2022/07/17 11:26:14;;;;;;;2.80;0.93;;;26.70;53.00;;;;;;5039744;28;20118;-50
2022/07/17 11:28:42;;;;;;;1.33;1.00;;;26.70;52.70;;;;;;5048964;28;20092;-45
2022/07/17 11:31:25;;;;;;;1.13;0.70;;;26.60;52.80;;;;;;5033534;28;20026;-51
2022/07/17 11:34:02;;;;;;;3.53;1.23;;;26.60;51.50;;;;;;5046437;28;20453;-48
2022/07/17 11:36:34;;;;;;;0.98;0.95;;;26.60;52.10;;;;;;5050791;28;20043;-49
2022/07/17 11:39:11;;;;;;;6.93;1.85;;;26.60;52.60;;;;;;5032707;28;20489;-45
2022/07/17 11:41:39;;;;;;;3.97;2.63;;;26.60;52.80;;;;;;5032561;28;20026;-47
2022/07/17 11:44:09;;;;;;;3.53;2.15;;;26.60;52.70;;;;;;5042772;28;20427;-45
2022/07/17 11:46:35;;;;;;;7.05;2.15;;;26.60;52.40;;;;;;5041443;28;20021;-48
2022/07/17 11:49:01;;;;;;;2.60;1.00;;;26.60;52.20;;;;;;5041380;28;20020;-49
2022/07/17 11:51:41;;;;;;;2.10;0.90;;;26.60;51.00;;;;;;5053027;28;20108;-50
2022/07/17 11:54:12;;;;;;;2.05;0.90;;;26.50;50.90;;;;;;5042031;28;20384;-44
2022/07/17 11:56:40;;;;;;;4.95;1.35;;;26.40;49.60;;;;;;5043101;28;20031;-46
2022/07/17 11:59:06;;;;;;;7.18;0.82;;;26.40;50.40;;;;;;5053021;28;20057;-48
2022/07/17 12:01:43;;;;;;;1.30;0.85;;;26.40;52.00;;;;;;5041852;28;20364;-51
2022/07/17 12:04:11;;;;;;;1.90;1.20;;;26.50;50.30;;;;;;5040116;28;20237;-46
2022/07/17 12:06:37;;;;;;;3.15;1.25;;;26.50;51.90;;;;;;5050970;28;20022;-43
2022/07/17 12:09:04;;;;;;;4.53;1.10;;;26.50;51.80;;;;;;5041272;28;20025;-47
2022/07/17 12:11:29;;;;;;;7.90;1.10;;;26.50;52.30;;;;;;5042920;28;20026;-46
2022/07/17 12:14:05;;;;;;;2.63;0.85;;;26.60;52.30;;;;;;5047560;28;20032;-42
2022/07/17 12:16:32;;;;;;;4.18;1.35;;;26.60;51.70;;;;;;5047952;28;20063;-42
2022/07/17 12:19:04;;;;;;;2.13;1.00;;;26.60;52.30;;;;;;5044387;28;20036;-45
2022/07/17 12:21:31;;;;;;;1.90;1.00;;;26.70;51.60;;;;;;5037578;28;20021;-43
2022/07/17 12:24:02;;;;;;;2.70;0.70;;;26.70;50.70;;;;;;5031760;28;20091;-45
2022/07/17 12:26:28;;;;;;;1.75;0.90;;;26.70;50.00;;;;;;5047688;28;20021;-44
2022/07/17 12:28:54;;;;;;;2.60;0.85;;;26.60;50.20;;;;;;5051283;28;20036;-47
2022/07/17 12:31:20;;;;;;;3.75;0.95;;;26.60;51.20;;;;;;5052363;28;20024;-49
2022/07/17 12:33:46;;;;;;;5.22;1.33;;;26.70;50.90;;;;;;5052106;28;20095;-43
2022/07/17 12:36:12;;;;;;;2.65;1.00;;;26.80;50.50;;;;;;5048183;28;20080;-45
2022/07/17 12:38:37;;;;;;;1.30;0.80;;;26.80;50.00;;;;;;5040330;28;20024;-46
2022/07/17 12:41:04;;;;;;;1.65;0.98;;;26.80;49.30;;;;;;5052131;28;20492;-44
2022/07/17 12:43:30;;;;;;;2.35;1.30;;;26.80;49.30;;;;;;5048105;28;20032;-46
2022/07/17 12:45:56;;;;;;;5.03;2.45;;;26.80;49.10;;;;;;5029931;28;20020;-47
2022/07/17 12:48:21;;;;;;;5.20;1.25;;;26.80;49.40;;;;;;5046420;28;20022;-49
2022/07/17 12:50:47;;;;;;;1.83;1.13;;;26.80;49.60;;;;;;5031239;28;20033;-46